createdAt,value
2019-04-26T00:01:51.228Z,17.40
2019-04-26T00:04:26.119Z,24.65
2019-04-26T00:07:00.804Z,18.62
2019-04-26T00:09:37.479Z,21.02
2019-04-26T00:12:14.449Z,18.32
2019-04-26T00:14:53.847Z,24.00
2019-04-26T00:17:36.515Z,19.70
2019-04-26T00:20:12.915Z,18.50
2019-04-26T00:22:49.392Z,18.40
2019-04-26T00:25:25.827Z,14.07
2019-04-26T00:28:02.216Z,16.90
2019-04-26T00:30:38.711Z,18.50
2019-04-26T00:33:15.281Z,17.05
2019-04-26T00:35:51.789Z,25.88
2019-04-26T00:38:28.178Z,21.00
2019-04-26T00:41:04.773Z,19.37
2019-04-26T00:43:41.767Z,22.15
2019-04-26T00:46:19.289Z,19.10
2019-04-26T00:48:56.854Z,15.93
2019-04-26T00:51:34.440Z,22.55
2019-04-26T00:54:11.392Z,21.85
2019-04-26T00:56:47.924Z,22.90
2019-04-26T00:59:24.701Z,16.25
2019-04-26T01:02:02.952Z,20.12
2019-04-26T01:04:39.265Z,26.48
2019-04-26T01:07:15.742Z,16.82
2019-04-26T01:09:52.012Z,19.52
2019-04-26T01:12:28.454Z,20.05
2019-04-26T01:15:06.950Z,20.82
2019-04-26T01:17:43.331Z,19.30
2019-04-26T01:20:22.600Z,17.52
2019-04-26T01:23:01.951Z,18.85
2019-04-26T01:25:53.430Z,15.83
2019-04-26T01:28:53.886Z,19.55
2019-04-26T01:31:33.047Z,16.87
2019-04-26T01:34:07.912Z,18.07
2019-04-26T01:36:44.172Z,19.80
2019-04-26T01:39:20.969Z,24.67
2019-04-26T01:41:57.889Z,15.50
2019-04-26T01:44:42.848Z,14.68
2019-04-26T01:47:18.581Z,19.32
2019-04-26T01:49:53.768Z,17.73
2019-04-26T01:52:29.675Z,18.60
2019-04-26T01:55:06.818Z,21.55
2019-04-26T01:57:42.582Z,25.12
2019-04-26T02:00:22.912Z,14.95
2019-04-26T02:05:33.833Z,20.40
2019-04-26T02:08:08.599Z,18.20
2019-04-26T02:10:43.388Z,16.60
2019-04-26T02:13:22.526Z,20.17
2019-04-26T02:15:58.347Z,20.08
2019-04-26T02:18:35.042Z,18.32
2019-04-26T02:21:16.066Z,23.55
2019-04-26T02:23:53.834Z,23.55
2019-04-26T02:26:34.477Z,20.70
2019-04-26T02:31:54.013Z,19.52
2019-04-26T02:34:32.885Z,24.77
2019-04-26T02:37:10.438Z,16.10
2019-04-26T02:39:45.193Z,17.85
2019-04-26T02:42:26.545Z,21.25
2019-04-26T02:45:21.655Z,19.35
2019-04-26T02:51:13.157Z,18.73
2019-04-26T02:53:56.753Z,27.93
2019-04-26T02:56:45.421Z,22.93
2019-04-26T02:59:33.978Z,23.42
2019-04-26T03:02:11.542Z,19.90
2019-04-26T03:04:50.349Z,25.80
2019-04-26T03:07:39.147Z,19.10
2019-04-26T03:10:15.683Z,21.33
2019-04-26T03:12:53.252Z,22.82
2019-04-26T03:15:48.808Z,21.85
2019-04-26T03:18:38.813Z,23.73
2019-04-26T03:21:22.230Z,21.82
2019-04-26T03:24:18.790Z,23.00
2019-04-26T03:27:05.087Z,27.27
2019-04-26T03:29:51.857Z,28.23
2019-04-26T03:32:54.175Z,22.37
2019-04-26T03:36:02.901Z,23.80
2019-04-26T03:38:51.045Z,34.88
2019-04-26T03:41:57.390Z,18.90
2019-04-26T03:44:47.342Z,24.23
2019-04-26T03:47:28.751Z,29.05
2019-04-26T03:50:15.281Z,22.35
2019-04-26T03:53:02.611Z,28.90
2019-04-26T03:55:43.786Z,30.23
2019-04-26T03:58:26.921Z,30.48
2019-04-26T04:01:08.684Z,27.52
2019-04-26T04:03:48.659Z,28.87
2019-04-26T04:06:28.517Z,32.42
2019-04-26T04:09:08.960Z,23.60
2019-04-26T04:11:50.759Z,32.28
2019-04-26T04:14:31.778Z,29.25
2019-04-26T04:19:54.089Z,26.17
2019-04-26T04:22:47.305Z,27.32
2019-04-26T04:25:32.623Z,29.65
2019-04-26T04:28:35.137Z,21.37
2019-04-26T04:31:24.736Z,20.60
2019-04-26T04:34:28.062Z,27.20
2019-04-26T04:37:05.423Z,28.65
2019-04-26T04:40:09.286Z,23.35
2019-04-26T04:43:07.265Z,26.07
2019-04-26T04:45:58.503Z,23.98
2019-04-26T04:52:19.763Z,24.63
2019-04-26T04:55:09.169Z,23.45
2019-04-26T04:58:18.313Z,21.87
2019-04-26T05:01:27.510Z,21.57
2019-04-26T05:04:12.650Z,23.65
2019-04-26T05:07:27.037Z,25.37
2019-04-26T05:10:10.407Z,29.27
2019-04-26T05:13:06.842Z,25.00
2019-04-26T05:16:03.767Z,26.45
2019-04-26T05:19:28.164Z,25.37
2019-04-26T05:22:14.696Z,29.72
2019-04-26T05:25:17.449Z,29.45
2019-04-26T05:28:14.828Z,28.87
2019-04-26T05:31:05.825Z,28.23
2019-04-26T05:33:50.639Z,27.70
2019-04-26T05:36:49.259Z,27.42
2019-04-26T05:39:38.832Z,27.87
2019-04-26T05:42:49.779Z,28.17
2019-04-26T05:46:16.192Z,27.10
2019-04-26T05:49:02.138Z,23.25
2019-04-26T05:51:49.303Z,30.00
2019-04-26T05:54:53.992Z,31.33
2019-04-26T05:57:38.874Z,27.30
2019-04-26T06:00:39.467Z,29.50
2019-04-26T06:03:35.355Z,31.62
2019-04-26T06:06:26.410Z,30.12
2019-04-26T06:09:18.575Z,29.27
2019-04-26T06:15:03.501Z,30.27
2019-04-26T06:17:53.052Z,27.37
2019-04-26T06:20:48.992Z,28.15
2019-04-26T06:23:43.391Z,32.50
2019-04-26T06:26:41.130Z,25.50
2019-04-26T06:29:21.455Z,29.05
2019-04-26T06:32:02.589Z,39.95
2019-04-26T06:34:59.329Z,35.68
2019-04-26T06:37:47.746Z,34.00
2019-04-26T06:40:25.484Z,46.02
2019-04-26T06:43:07.268Z,26.95
2019-04-26T06:45:52.175Z,33.23
2019-04-26T06:48:48.324Z,40.10
2019-04-26T06:51:32.027Z,30.88
2019-04-26T06:54:20.668Z,37.08
2019-04-26T06:57:10.668Z,31.02
2019-04-26T06:59:48.050Z,37.75
2019-04-26T07:02:57.409Z,37.70
2019-04-26T07:05:37.894Z,36.28
2019-04-26T07:08:41.276Z,48.13
2019-04-26T07:11:52.207Z,44.55
2019-04-26T07:14:36.105Z,46.10
2019-04-26T07:17:33.422Z,38.30
2019-04-26T07:20:27.210Z,23.57
2019-04-26T07:23:21.648Z,33.25
2019-04-26T07:26:09.846Z,43.17
2019-04-26T07:29:09.315Z,33.98
2019-04-26T07:31:49.710Z,35.95
2019-04-26T07:35:02.738Z,41.92
2019-04-26T07:38:06.976Z,37.20
2019-04-26T07:41:11.946Z,35.75
2019-04-26T07:44:11.821Z,37.33
2019-04-26T07:47:08.518Z,43.68
2019-04-26T07:50:19.758Z,32.93
2019-04-26T07:56:11.378Z,38.28
2019-04-26T07:59:14.976Z,42.75
2019-04-26T08:02:14.293Z,31.70
2019-04-26T08:05:03.288Z,37.45
2019-04-26T08:07:44.888Z,40.83
2019-04-26T08:13:04.993Z,43.02
2019-04-26T08:16:05.345Z,36.17
2019-04-26T08:18:45.232Z,36.60
2019-04-26T08:21:31.866Z,33.95
2019-04-26T08:24:10.004Z,35.85
2019-04-26T08:26:47.760Z,38.28
2019-04-26T08:29:24.563Z,44.70
2019-04-26T08:32:02.261Z,31.93
2019-04-26T08:34:40.151Z,37.30
2019-04-26T08:37:22.629Z,26.80
2019-04-26T08:39:59.443Z,26.73
2019-04-26T08:42:41.181Z,27.58
2019-04-26T08:45:30.230Z,35.48
2019-04-26T08:48:10.370Z,30.43
2019-04-26T08:50:48.197Z,36.83
2019-04-26T08:53:25.464Z,36.48
2019-04-26T08:56:03.431Z,44.67
2019-04-26T08:58:41.660Z,30.82
2019-04-26T09:01:26.514Z,37.55
2019-04-26T09:04:17.725Z,31.80
2019-04-26T09:07:08.841Z,42.58
2019-04-26T09:09:56.770Z,30.20
2019-04-26T09:12:26.552Z,36.17
2019-04-26T09:15:05.514Z,42.80
2019-04-26T09:17:40.167Z,34.40
2019-04-26T09:20:27.825Z,38.50
2019-04-26T09:22:56.679Z,45.48
2019-04-26T09:25:39.001Z,41.73
2019-04-26T09:28:19.656Z,37.67
2019-04-26T09:30:58.530Z,34.53
2019-04-26T09:33:38.394Z,36.98
2019-04-26T09:36:13.259Z,37.80
2019-04-26T09:38:48.625Z,39.42
2019-04-26T09:41:26.612Z,36.20
2019-04-26T09:44:02.009Z,33.92
2019-04-26T09:46:56.291Z,30.10
2019-04-26T09:49:32.723Z,37.63
2019-04-26T09:52:09.134Z,30.62
2019-04-26T09:54:44.041Z,34.20
2019-04-26T09:57:19.371Z,32.13
2019-04-26T09:59:54.169Z,35.10
2019-04-26T10:02:33.360Z,29.42
2019-04-26T10:05:07.959Z,29.40
2019-04-26T10:07:43.415Z,31.73
2019-04-26T10:10:23.027Z,30.60
2019-04-26T10:13:15.266Z,40.28
2019-04-26T10:16:02.665Z,40.50
2019-04-26T10:18:35.383Z,26.65
2019-04-26T10:21:10.110Z,36.77
2019-04-26T10:23:44.866Z,29.18
2019-04-26T10:26:23.278Z,30.55
2019-04-26T10:28:55.980Z,34.35
2019-04-26T10:31:31.347Z,35.80
2019-04-26T10:34:07.705Z,35.70
2019-04-26T10:36:43.095Z,33.18
2019-04-26T10:39:19.162Z,31.55
2019-04-26T10:41:53.948Z,31.25
2019-04-26T10:44:28.702Z,37.23
2019-04-26T10:47:04.346Z,32.08
2019-04-26T10:49:42.896Z,38.08
2019-04-26T10:52:25.865Z,42.40
2019-04-26T10:55:12.234Z,39.80
2019-04-26T10:57:49.198Z,31.85
2019-04-26T11:00:28.843Z,30.20
2019-04-26T11:03:04.573Z,26.87
2019-04-26T11:05:41.273Z,31.75
2019-04-26T11:08:16.070Z,27.82
2019-04-26T11:10:51.943Z,40.55
2019-04-26T11:13:27.804Z,37.00
2019-04-26T11:16:06.922Z,37.13
2019-04-26T11:18:39.408Z,30.65
2019-04-26T11:21:16.404Z,35.43
2019-04-26T11:23:52.835Z,46.55
2019-04-26T11:26:31.088Z,31.70
2019-04-26T11:29:04.682Z,31.23
2019-04-26T11:31:39.445Z,38.30
2019-04-26T11:34:14.234Z,30.62
2019-04-26T11:36:50.564Z,31.17
2019-04-26T11:39:28.201Z,31.52
2019-04-26T11:42:07.939Z,36.68
2019-04-26T11:44:44.536Z,34.35
2019-04-26T11:47:20.778Z,31.82
2019-04-26T11:49:57.185Z,35.38
2019-04-26T11:52:35.994Z,35.00
2019-04-26T11:55:11.605Z,39.27
2019-04-26T11:57:49.154Z,36.83
2019-04-26T12:00:27.612Z,35.33
2019-04-26T12:03:04.459Z,41.30
2019-04-26T12:05:51.402Z,39.88
2019-04-26T12:08:47.619Z,35.03
2019-04-26T12:11:31.541Z,38.17
2019-04-26T12:14:03.982Z,38.38
2019-04-26T12:16:48.100Z,31.07
2019-04-26T12:19:18.561Z,32.73
2019-04-26T12:21:55.774Z,31.35
2019-04-26T12:24:34.409Z,31.77
2019-04-26T12:27:10.680Z,44.27
2019-04-26T12:29:48.220Z,33.13
2019-04-26T12:32:25.531Z,27.87
2019-04-26T12:35:01.852Z,36.33
2019-04-26T12:37:38.336Z,32.25
2019-04-26T12:40:14.813Z,30.20
2019-04-26T12:42:51.159Z,23.32
2019-04-26T12:45:34.724Z,28.32
2019-04-26T12:48:15.738Z,34.30
2019-04-26T12:50:50.750Z,29.72
2019-04-26T12:53:31.190Z,33.73
2019-04-26T12:56:05.112Z,30.55
2019-04-26T12:58:41.545Z,29.10
2019-04-26T13:01:18.103Z,36.50
2019-04-26T13:04:04.025Z,30.80
2019-04-26T13:06:44.710Z,38.73
2019-04-26T13:09:26.475Z,24.98
2019-04-26T13:12:02.956Z,33.08
2019-04-26T13:14:42.869Z,31.95
2019-04-26T13:17:31.327Z,28.77
2019-04-26T13:20:06.877Z,31.35
2019-04-26T13:22:46.246Z,31.60
2019-04-26T13:25:26.290Z,31.40
2019-04-26T13:27:54.359Z,39.25
2019-04-26T13:30:33.204Z,25.97
2019-04-26T13:33:10.061Z,32.65
2019-04-26T13:35:46.691Z,29.98
2019-04-26T13:38:20.797Z,31.05
2019-04-26T13:40:55.609Z,36.30
2019-04-26T13:43:30.392Z,29.60
2019-04-26T13:46:21.855Z,29.30
2019-04-26T13:49:01.124Z,30.57
2019-04-26T13:51:37.614Z,25.45
2019-04-26T13:54:16.586Z,26.90
2019-04-26T13:56:50.539Z,29.20
2019-04-26T13:59:28.141Z,28.67
2019-04-26T14:02:11.441Z,27.95
2019-04-26T14:04:41.111Z,30.17
2019-04-26T14:07:14.418Z,25.97
2019-04-26T14:09:49.663Z,26.25
2019-04-26T14:12:24.461Z,29.95
2019-04-26T14:14:59.227Z,27.17
2019-04-26T14:17:34.044Z,27.20
2019-04-26T14:20:08.973Z,40.40
2019-04-26T14:23:03.251Z,32.63
2019-04-26T14:25:55.496Z,26.33
2019-04-26T14:28:29.381Z,30.25
2019-04-26T14:31:04.236Z,30.80
2019-04-26T14:33:38.961Z,39.23
2019-04-26T14:36:17.870Z,29.32
2019-04-26T14:38:50.093Z,37.15
2019-04-26T14:41:24.911Z,40.35
2019-04-26T14:43:59.505Z,31.00
2019-04-26T14:46:34.197Z,32.70
2019-04-26T14:49:08.991Z,30.97
2019-04-26T14:51:46.987Z,26.82
2019-04-26T14:54:20.098Z,33.78
2019-04-26T14:56:54.785Z,25.23
2019-04-26T14:59:47.025Z,26.27
2019-04-26T15:02:29.591Z,33.67
2019-04-26T15:05:09.223Z,32.40
2019-04-26T15:07:49.504Z,30.77
2019-04-26T15:10:21.934Z,36.08
2019-04-26T15:13:11.475Z,30.92
2019-04-26T15:15:34.628Z,45.70
2019-04-26T15:18:09.487Z,42.60
2019-04-26T15:20:44.288Z,36.55
2019-04-26T15:23:19.475Z,32.08
2019-04-26T15:25:55.331Z,28.67
2019-04-26T15:28:30.011Z,33.70
2019-04-26T15:31:05.010Z,29.20
2019-04-26T15:33:42.741Z,33.90
2019-04-26T15:36:17.105Z,34.98
2019-04-26T15:38:52.821Z,36.42
2019-04-26T15:41:29.262Z,30.48
2019-04-26T15:44:24.859Z,33.30
2019-04-26T15:47:05.156Z,32.48
2019-04-26T15:49:47.081Z,32.00
2019-04-26T15:52:21.873Z,39.75
2019-04-26T15:54:58.988Z,31.17
2019-04-26T15:57:34.617Z,33.15
2019-04-26T16:00:10.119Z,36.20
2019-04-26T16:02:44.915Z,31.65
2019-04-26T16:05:19.604Z,40.48
2019-04-26T16:07:57.338Z,36.70
2019-04-26T16:10:34.613Z,47.78
2019-04-26T16:13:18.577Z,34.30
2019-04-26T16:15:48.616Z,29.55
2019-04-26T16:18:19.810Z,33.78
2019-04-26T16:20:54.571Z,33.63
2019-04-26T16:23:39.443Z,37.00
2019-04-26T16:26:12.171Z,31.45
2019-04-26T16:28:46.441Z,31.75
2019-04-26T16:31:22.794Z,28.45
2019-04-26T16:34:14.471Z,37.50
2019-04-26T16:36:49.238Z,32.85
2019-04-26T16:39:28.413Z,32.05
2019-04-26T16:42:05.007Z,43.45
2019-04-26T16:44:37.863Z,31.62
2019-04-26T16:47:13.270Z,38.38
2019-04-26T16:49:48.131Z,41.83
2019-04-26T16:52:23.751Z,39.90
2019-04-26T16:55:02.739Z,45.48
2019-04-26T16:57:35.156Z,27.70
2019-04-26T17:00:09.983Z,37.42
2019-04-26T17:02:44.694Z,35.35
2019-04-26T17:05:28.866Z,39.13
2019-04-26T17:07:58.863Z,34.05
2019-04-26T17:10:33.348Z,40.08
2019-04-26T17:13:08.042Z,42.70
2019-04-26T17:15:44.397Z,31.48
2019-04-26T17:18:23.812Z,35.30
2019-04-26T17:20:58.769Z,37.30
2019-04-26T17:23:36.806Z,39.15
2019-04-26T17:26:17.694Z,41.68
2019-04-26T17:28:57.058Z,42.75
2019-04-26T17:31:33.729Z,38.73
2019-04-26T17:34:10.242Z,41.35
2019-04-26T17:36:50.453Z,41.68
2019-04-26T17:39:24.724Z,43.70
2019-04-26T17:44:41.272Z,32.05
2019-04-26T17:47:16.203Z,34.92
2019-04-26T17:49:52.401Z,45.55
2019-04-26T17:52:29.792Z,47.95
2019-04-26T17:55:07.707Z,40.05
2019-04-26T17:57:43.568Z,41.00
2019-04-26T18:00:20.814Z,46.42
2019-04-26T18:02:57.220Z,50.57
2019-04-26T18:05:41.997Z,45.98
2019-04-26T18:08:31.538Z,38.83
2019-04-26T18:10:45.447Z,37.23
2019-04-26T18:13:20.283Z,42.85
2019-04-26T18:15:58.870Z,38.78
2019-04-26T18:18:56.155Z,34.67
2019-04-26T18:21:41.391Z,41.28
2019-04-26T18:24:16.216Z,32.83
2019-04-26T18:26:54.015Z,40.20
2019-04-26T18:29:29.265Z,38.80
2019-04-26T18:32:06.993Z,38.40
2019-04-26T18:34:43.011Z,40.28
2019-04-26T18:37:17.943Z,46.02
2019-04-26T18:39:57.471Z,36.88
2019-04-26T18:42:30.063Z,41.53
2019-04-26T18:45:08.050Z,37.98
2019-04-26T18:47:45.386Z,41.40
2019-04-26T18:50:23.717Z,42.33
2019-04-26T18:53:10.404Z,49.53
2019-04-26T18:55:46.803Z,35.85
2019-04-26T18:58:21.599Z,36.38
2019-04-26T19:00:57.427Z,41.40
2019-04-26T19:03:33.785Z,39.45
2019-04-26T19:06:08.555Z,35.28
2019-04-26T19:08:49.968Z,38.17
2019-04-26T19:11:23.004Z,47.50
2019-04-26T19:13:59.378Z,35.03
2019-04-26T19:16:56.864Z,44.67
2019-04-26T19:19:46.739Z,34.15
2019-04-26T19:22:22.525Z,32.85
2019-04-26T19:24:59.207Z,31.70
2019-04-26T19:27:47.285Z,44.27
2019-04-26T19:30:15.366Z,43.78
2019-04-26T19:32:52.010Z,29.50
2019-04-26T19:35:27.657Z,40.30
2019-04-26T19:38:03.382Z,40.43
2019-04-26T19:40:39.317Z,32.95
2019-04-26T19:43:27.752Z,35.48
2019-04-26T19:45:58.356Z,43.00
2019-04-26T19:48:37.906Z,41.55
2019-04-26T19:51:30.909Z,53.13
2019-04-26T19:54:07.723Z,37.42
2019-04-26T19:56:44.169Z,43.28
2019-04-26T19:59:27.599Z,55.20
2019-04-26T20:02:01.628Z,33.73
2019-04-26T20:04:36.512Z,40.50
2019-04-26T20:07:12.899Z,36.15
2019-04-26T20:09:47.663Z,38.83
2019-04-26T20:12:25.114Z,32.48
2019-04-26T20:14:58.855Z,25.68
2019-04-26T20:17:33.660Z,28.20
2019-04-26T20:20:18.875Z,30.23
2019-04-26T20:22:45.075Z,28.75
2019-04-26T20:25:22.371Z,32.65
2019-04-26T20:27:59.930Z,27.85
2019-04-26T20:30:38.724Z,31.30
2019-04-26T20:33:13.474Z,23.02
2019-04-26T20:35:48.231Z,27.82
2019-04-26T20:38:23.030Z,38.42
2019-04-26T20:40:59.447Z,22.50
2019-04-26T20:43:36.799Z,20.15
2019-04-26T20:46:34.469Z,22.70
2019-04-26T20:49:11.354Z,29.05
2019-04-26T20:51:47.835Z,25.37
2019-04-26T20:54:22.690Z,31.33
2019-04-26T20:56:57.461Z,27.50
2019-04-26T20:59:33.605Z,20.95
2019-04-26T21:02:08.463Z,30.15
2019-04-26T21:04:46.019Z,22.42
2019-04-26T21:07:21.895Z,28.90
2019-04-26T21:09:56.858Z,18.80
2019-04-26T21:12:33.750Z,26.57
2019-04-26T21:15:08.656Z,22.07
2019-04-26T21:17:43.414Z,23.42
2019-04-26T21:20:18.287Z,19.32
2019-04-26T21:22:52.863Z,25.25
2019-04-26T21:25:47.708Z,25.25
2019-04-26T21:28:25.064Z,18.45
2019-04-26T21:31:07.621Z,20.82
2019-04-26T21:33:47.936Z,23.85
2019-04-26T21:36:27.143Z,23.42
2019-04-26T21:39:07.303Z,22.00
2019-04-26T21:41:46.742Z,17.90
2019-04-26T21:44:17.805Z,18.67
2019-04-26T21:46:55.884Z,22.37
2019-04-26T21:49:28.781Z,16.60
2019-04-26T21:52:03.743Z,21.75
2019-04-26T21:54:38.505Z,20.77
2019-04-26T21:57:13.293Z,23.92
2019-04-26T21:59:48.062Z,19.40
2019-04-26T22:02:23.262Z,20.50
2019-04-26T22:04:59.484Z,20.02
2019-04-26T22:07:35.010Z,25.05
2019-04-26T22:10:19.906Z,29.23
2019-04-26T22:12:54.643Z,26.20
2019-04-26T22:15:35.939Z,24.52
2019-04-26T22:18:14.830Z,26.65
2019-04-26T22:20:52.203Z,15.08
2019-04-26T22:23:47.603Z,15.48
2019-04-26T22:26:24.199Z,25.00
2019-04-26T22:29:00.488Z,21.33
2019-04-26T22:31:37.892Z,17.95
2019-04-26T22:34:14.889Z,22.77
2019-04-26T22:36:51.245Z,15.68
2019-04-26T22:39:31.660Z,23.50
2019-04-26T22:42:05.967Z,15.25
2019-04-26T22:44:44.043Z,19.95
2019-04-26T22:47:23.926Z,16.82
2019-04-26T22:49:58.502Z,17.35
2019-04-26T22:52:33.512Z,16.52
2019-04-26T22:55:09.040Z,14.15
2019-04-26T22:57:45.321Z,22.52
2019-04-26T23:00:27.882Z,16.00
2019-04-26T23:03:03.680Z,17.75
2019-04-26T23:05:39.143Z,17.17
2019-04-26T23:08:13.621Z,20.27
2019-04-26T23:10:50.029Z,17.27
2019-04-26T23:13:44.392Z,20.90
2019-04-26T23:16:20.861Z,19.57
2019-04-26T23:18:59.715Z,19.85
2019-04-26T23:21:36.090Z,16.65
2019-04-26T23:24:11.507Z,17.70
2019-04-26T23:26:47.126Z,21.00
2019-04-26T23:29:22.790Z,23.65
2019-04-26T23:31:57.591Z,20.25
2019-04-26T23:34:33.668Z,14.43
2019-04-26T23:37:08.740Z,14.78
2019-04-26T23:39:49.273Z,20.80
2019-04-26T23:42:19.784Z,20.85
2019-04-26T23:44:54.545Z,18.17
2019-04-26T23:47:32.058Z,19.20
2019-04-26T23:50:06.695Z,18.42
2019-04-26T23:52:41.345Z,22.20
2019-04-26T23:55:16.109Z,21.85
2019-04-26T23:57:50.852Z,20.40
